createdAt,value
2019-05-01T00:02:35.534Z,52.93
2019-05-01T00:05:13.698Z,51.10
2019-05-01T00:07:43.737Z,49.73
2019-05-01T00:10:14.696Z,46.53
2019-05-01T00:12:44.583Z,52.33
2019-05-01T00:15:15.548Z,49.97
2019-05-01T00:17:45.626Z,54.27
2019-05-01T00:20:15.892Z,48.77
2019-05-01T00:22:45.657Z,51.60
2019-05-01T00:25:15.446Z,54.27
2019-05-01T00:27:45.663Z,56.50
2019-05-01T00:30:29.263Z,54.60
2019-05-01T00:32:49.862Z,55.47
2019-05-01T00:35:19.556Z,58.03
2019-05-01T00:37:49.546Z,57.43
2019-05-01T00:40:19.227Z,51.20
2019-05-01T00:42:49.028Z,54.90
2019-05-01T00:45:19.219Z,53.27
2019-05-01T00:47:49.540Z,54.17
2019-05-01T00:50:19.388Z,52.87
2019-05-01T00:52:49.632Z,53.40
2019-05-01T00:55:37.000Z,56.03
2019-05-01T00:58:22.471Z,51.70
2019-05-01T01:01:21.017Z,51.40
2019-05-01T01:03:51.017Z,53.00
2019-05-01T01:06:20.723Z,64.30
2019-05-01T01:08:50.552Z,53.60
2019-05-01T01:11:20.751Z,56.97
2019-05-01T01:13:50.587Z,64.13
2019-05-01T01:16:20.650Z,61.53
2019-05-01T01:18:50.834Z,58.67
2019-05-01T01:21:20.645Z,55.70
2019-05-01T01:23:50.820Z,55.70
2019-05-01T01:26:20.746Z,58.33
2019-05-01T01:28:50.571Z,55.80
2019-05-01T01:31:20.825Z,54.57
2019-05-01T01:33:52.638Z,54.90
2019-05-01T01:36:22.638Z,64.17
2019-05-01T01:38:52.377Z,56.07
2019-05-01T01:41:22.376Z,62.23
2019-05-01T01:44:13.865Z,50.80
2019-05-01T01:46:44.071Z,55.03
2019-05-01T01:49:14.763Z,59.97
2019-05-01T01:51:45.070Z,59.77
2019-05-01T01:54:15.078Z,55.30
2019-05-01T01:56:45.073Z,61.27
2019-05-01T01:59:15.443Z,53.27
2019-05-01T02:02:16.114Z,53.40
2019-05-01T02:04:54.470Z,59.13
2019-05-01T02:07:24.486Z,64.70
2019-05-01T02:09:54.418Z,58.50
2019-05-01T02:12:24.270Z,53.87
2019-05-01T02:14:54.298Z,55.97
2019-05-01T02:17:24.093Z,60.57
2019-05-01T02:19:53.818Z,50.77
2019-05-01T02:22:23.620Z,59.37
2019-05-01T02:24:53.581Z,50.43
2019-05-01T02:27:33.071Z,63.10
2019-05-01T02:30:04.398Z,61.03
2019-05-01T02:32:36.412Z,63.93
2019-05-01T02:35:06.836Z,53.20
2019-05-01T02:37:38.528Z,61.43
2019-05-01T02:41:01.878Z,65.80
2019-05-01T02:43:34.513Z,55.33
2019-05-01T02:46:05.724Z,60.60
2019-05-01T02:48:38.245Z,58.73
2019-05-01T02:51:09.625Z,62.30
2019-05-01T02:53:42.459Z,61.17
2019-05-01T02:56:39.736Z,60.70
2019-05-01T02:59:11.518Z,57.03
2019-05-01T03:01:47.132Z,55.67
2019-05-01T03:04:13.926Z,53.33
2019-05-01T03:06:44.763Z,64.93
2019-05-01T03:09:15.705Z,59.70
2019-05-01T03:11:47.515Z,59.33
2019-05-01T03:14:20.520Z,53.90
2019-05-01T03:16:52.229Z,56.50
2019-05-01T03:19:41.817Z,56.10
2019-05-01T03:22:29.522Z,62.40
2019-05-01T03:24:59.742Z,56.13
2019-05-01T03:27:29.755Z,51.10
2019-05-01T03:29:59.796Z,49.43
2019-05-01T03:32:29.928Z,58.80
2019-05-01T03:35:00.185Z,54.80
2019-05-01T03:37:30.851Z,60.43
2019-05-01T03:40:01.164Z,54.70
2019-05-01T03:42:30.876Z,53.73
2019-05-01T03:45:01.019Z,49.97
2019-05-01T03:47:31.832Z,51.30
2019-05-01T03:50:02.204Z,52.03
2019-05-01T03:52:32.343Z,55.00
2019-05-01T03:55:02.565Z,57.33
2019-05-01T03:57:32.401Z,59.43
2019-05-01T04:00:04.569Z,67.47
2019-05-01T04:03:02.131Z,71.83
2019-05-01T04:05:32.051Z,73.13
2019-05-01T04:08:01.901Z,67.20
2019-05-01T04:10:31.726Z,67.63
2019-05-01T04:13:01.471Z,79.13
2019-05-01T04:15:32.322Z,86.43
2019-05-01T04:18:03.846Z,72.37
2019-05-01T04:20:33.748Z,78.53
2019-05-01T04:23:04.172Z,90.23
2019-05-01T04:25:34.837Z,136.17
2019-05-01T04:28:23.889Z,156.77
2019-05-01T04:31:16.185Z,158.70
2019-05-01T04:33:47.404Z,177.57
2019-05-01T04:36:23.493Z,183.17
2019-05-01T04:38:53.603Z,183.90
2019-05-01T04:41:23.624Z,218.50
2019-05-01T04:43:54.478Z,248.97
2019-05-01T04:46:24.521Z,180.53
2019-05-01T04:48:54.821Z,194.40
2019-05-01T04:51:25.109Z,170.93
2019-05-01T04:53:55.024Z,180.03
2019-05-01T04:56:25.449Z,195.90
2019-05-01T04:58:56.114Z,179.17
2019-05-01T05:01:29.247Z,175.83
2019-05-01T05:03:59.416Z,175.97
2019-05-01T05:06:30.069Z,179.53
2019-05-01T05:09:00.255Z,182.57
2019-05-01T05:11:31.734Z,150.03
2019-05-01T05:14:12.199Z,149.67
2019-05-01T05:16:48.456Z,131.20
2019-05-01T05:19:18.725Z,132.37
2019-05-01T05:21:49.651Z,147.50
2019-05-01T05:24:19.782Z,149.00
2019-05-01T05:26:50.421Z,170.30
2019-05-01T05:29:22.691Z,155.90
2019-05-01T05:31:53.362Z,146.13
2019-05-01T05:34:25.996Z,141.77
2019-05-01T05:36:59.756Z,160.53
2019-05-01T05:39:36.260Z,150.17
2019-05-01T05:42:06.791Z,161.37
2019-05-01T05:44:36.721Z,173.70
2019-05-01T05:47:06.522Z,183.63
2019-05-01T05:49:36.597Z,169.40
2019-05-01T05:52:12.577Z,167.30
2019-05-01T05:55:15.265Z,169.00
2019-05-01T05:58:04.977Z,146.53
2019-05-01T06:00:54.558Z,169.63
2019-05-01T06:03:57.488Z,184.07
2019-05-01T06:06:49.622Z,225.53
2019-05-01T06:09:23.704Z,181.13
2019-05-01T06:12:17.429Z,178.77
2019-05-01T06:15:13.248Z,191.93
2019-05-01T06:17:48.028Z,172.77
2019-05-01T06:20:32.178Z,173.03
2019-05-01T06:23:22.487Z,232.73
2019-05-01T06:26:00.125Z,206.17
2019-05-01T06:28:29.730Z,206.20
2019-05-01T06:31:22.887Z,271.20
2019-05-01T06:33:52.975Z,180.93
2019-05-01T06:36:23.653Z,192.10
2019-05-01T06:38:52.817Z,278.97
2019-05-01T06:41:23.449Z,222.03
2019-05-01T06:44:04.106Z,188.90
2019-05-01T06:46:53.293Z,181.13
2019-05-01T06:49:42.109Z,180.37
2019-05-01T06:52:15.494Z,203.33
2019-05-01T06:54:47.788Z,210.33
2019-05-01T06:57:18.267Z,312.03
2019-05-01T06:59:50.153Z,250.07
2019-05-01T07:02:21.082Z,180.83
2019-05-01T07:04:51.316Z,166.63
2019-05-01T07:07:25.633Z,200.70
2019-05-01T07:09:56.651Z,209.03
2019-05-01T07:12:28.682Z,274.73
2019-05-01T07:15:00.375Z,246.20
2019-05-01T07:17:31.292Z,195.87
2019-05-01T07:20:36.636Z,184.73
2019-05-01T07:23:06.847Z,208.17
2019-05-01T07:25:39.410Z,166.97
2019-05-01T07:28:09.131Z,219.07
2019-05-01T07:30:44.307Z,188.63
2019-05-01T07:33:16.751Z,195.57
2019-05-01T07:35:46.399Z,181.13
2019-05-01T07:38:16.497Z,185.17
2019-05-01T07:40:47.518Z,226.47
2019-05-01T07:43:44.554Z,176.10
2019-05-01T07:46:33.626Z,179.30
2019-05-01T07:49:04.274Z,182.03
2019-05-01T07:51:37.837Z,189.50
2019-05-01T07:54:08.894Z,183.87
2019-05-01T07:56:38.446Z,201.67
2019-05-01T07:59:09.208Z,190.83
2019-05-01T08:02:00.501Z,172.87
2019-05-01T08:04:37.524Z,169.73
2019-05-01T08:07:01.729Z,141.50
2019-05-01T08:09:31.566Z,128.73
2019-05-01T08:12:01.452Z,124.73
2019-05-01T08:14:31.594Z,130.73
2019-05-01T08:17:01.840Z,135.93
2019-05-01T08:19:49.456Z,144.17
2019-05-01T08:22:24.705Z,133.33
2019-05-01T08:24:58.859Z,142.77
2019-05-01T08:27:51.081Z,128.70
2019-05-01T08:30:48.072Z,122.53
2019-05-01T08:33:51.589Z,134.80
2019-05-01T08:36:21.585Z,132.07
2019-05-01T08:38:51.336Z,125.60
2019-05-01T08:41:21.458Z,117.27
2019-05-01T08:43:54.182Z,106.40
2019-05-01T08:46:40.762Z,108.97
2019-05-01T08:49:18.171Z,124.90
2019-05-01T08:51:48.260Z,111.13
2019-05-01T08:54:17.956Z,105.80
2019-05-01T08:56:47.842Z,117.73
2019-05-01T08:59:19.360Z,120.43
2019-05-01T09:01:50.626Z,120.90
2019-05-01T09:04:25.399Z,124.30
2019-05-01T09:06:52.380Z,143.17
2019-05-01T09:09:22.390Z,118.10
2019-05-01T09:11:54.546Z,79.80
2019-05-01T09:14:23.452Z,99.20
2019-05-01T09:16:53.257Z,91.53
2019-05-01T09:19:23.135Z,83.30
2019-05-01T09:21:52.868Z,86.17
2019-05-01T09:24:23.200Z,84.77
2019-05-01T09:27:05.175Z,83.67
2019-05-01T09:29:51.312Z,76.13
2019-05-01T09:32:18.798Z,86.90
2019-05-01T09:34:49.296Z,98.87
2019-05-01T09:37:18.848Z,88.87
2019-05-01T09:39:48.929Z,99.27
2019-05-01T09:42:23.793Z,91.43
2019-05-01T09:44:50.543Z,85.80
2019-05-01T09:47:20.936Z,82.60
2019-05-01T09:49:53.955Z,81.33
2019-05-01T09:52:41.784Z,92.27
2019-05-01T09:55:23.089Z,112.77
2019-05-01T09:57:50.241Z,97.77
2019-05-01T10:00:31.348Z,113.37
2019-05-01T10:03:01.622Z,108.30
2019-05-01T10:05:31.847Z,101.67
2019-05-01T10:08:04.209Z,106.27
2019-05-01T10:10:33.471Z,98.07
2019-05-01T10:13:03.339Z,99.37
2019-05-01T10:15:33.048Z,101.50
2019-05-01T10:18:02.883Z,108.30
2019-05-01T10:20:32.699Z,98.37
2019-05-01T10:23:02.378Z,116.27
2019-05-01T10:25:32.136Z,126.00
2019-05-01T10:28:07.345Z,107.30
2019-05-01T10:31:13.201Z,116.57
2019-05-01T10:33:45.172Z,102.90
2019-05-01T10:36:33.815Z,109.33
2019-05-01T10:39:05.546Z,113.43
2019-05-01T10:41:35.344Z,86.17
2019-05-01T10:44:05.198Z,98.60
2019-05-01T10:46:35.014Z,98.87
2019-05-01T10:49:05.049Z,91.33
2019-05-01T10:51:34.933Z,85.57
2019-05-01T10:54:05.055Z,79.43
2019-05-01T10:56:34.853Z,89.10
2019-05-01T10:59:04.670Z,93.87
2019-05-01T11:01:46.808Z,98.37
2019-05-01T11:04:16.971Z,90.43
2019-05-01T11:06:46.937Z,89.03
2019-05-01T11:09:16.717Z,78.87
2019-05-01T11:11:46.547Z,78.50
2019-05-01T11:14:16.325Z,76.00
2019-05-01T11:16:46.588Z,77.70
2019-05-01T11:19:16.500Z,74.23
2019-05-01T11:21:46.348Z,80.37
2019-05-01T11:24:16.430Z,68.77
2019-05-01T11:26:46.332Z,55.63
2019-05-01T11:29:16.429Z,56.83
2019-05-01T11:31:59.082Z,58.97
2019-05-01T11:35:00.098Z,53.93
2019-05-01T11:38:06.931Z,54.97
2019-05-01T11:40:39.534Z,51.10
2019-05-01T11:43:09.325Z,51.90
2019-05-01T11:45:39.479Z,57.83
2019-05-01T11:48:09.376Z,57.83
2019-05-01T11:50:39.390Z,51.60
2019-05-01T11:53:09.403Z,55.77
2019-05-01T11:55:39.134Z,49.00
2019-05-01T11:58:09.151Z,49.40
2019-05-01T12:00:39.184Z,55.57
2019-05-01T12:03:09.293Z,54.77
2019-05-01T12:05:39.183Z,47.67
2019-05-01T12:08:09.886Z,47.63
2019-05-01T12:10:39.918Z,52.60
2019-05-01T12:13:10.488Z,47.30
2019-05-01T12:15:42.541Z,47.90
2019-05-01T12:18:12.482Z,50.10
2019-05-01T12:20:42.251Z,52.23
2019-05-01T12:23:12.453Z,45.47
2019-05-01T12:25:42.314Z,52.50
2019-05-01T12:28:12.102Z,54.07
2019-05-01T12:30:41.889Z,50.03
2019-05-01T12:33:11.795Z,54.03
2019-05-01T12:35:42.624Z,54.53
2019-05-01T12:38:12.481Z,55.50
2019-05-01T12:40:43.471Z,51.93
2019-05-01T12:43:13.437Z,55.97
2019-05-01T12:45:45.324Z,53.50
2019-05-01T12:48:15.110Z,51.40
2019-05-01T12:50:46.534Z,55.93
2019-05-01T12:53:21.595Z,48.50
2019-05-01T12:56:10.373Z,51.70
2019-05-01T12:58:40.322Z,49.83
2019-05-01T13:01:10.504Z,49.53
2019-05-01T13:03:40.625Z,49.53
2019-05-01T13:06:10.405Z,50.30
2019-05-01T13:08:40.964Z,50.77
2019-05-01T13:11:11.121Z,47.73
2019-05-01T13:13:42.938Z,46.20
2019-05-01T13:16:12.742Z,44.10
2019-05-01T13:39:31.602Z,47.20
2019-05-01T13:51:57.254Z,53.00
2019-05-01T13:54:27.431Z,47.70
2019-05-01T13:56:57.888Z,47.60
2019-05-01T13:59:27.626Z,53.00
2019-05-01T14:01:57.384Z,56.20
2019-05-01T14:04:28.520Z,51.57
2019-05-01T14:06:58.279Z,51.07
2019-05-01T14:09:31.940Z,52.77
2019-05-01T14:12:01.683Z,50.30
2019-05-01T14:14:31.544Z,51.73
2019-05-01T14:17:01.385Z,51.83
2019-05-01T14:19:32.394Z,56.63
2019-05-01T14:22:19.811Z,54.43
2019-05-01T14:24:52.703Z,54.93
2019-05-01T14:27:22.562Z,52.27
2019-05-01T14:29:52.670Z,57.83
2019-05-01T14:32:22.873Z,52.83
2019-05-01T14:34:53.146Z,50.20
2019-05-01T14:37:29.758Z,53.83
2019-05-01T14:39:55.132Z,50.77
2019-05-01T14:42:24.908Z,57.87
2019-05-01T14:44:54.613Z,49.30
2019-05-01T14:47:24.456Z,56.60
2019-05-01T14:49:54.463Z,57.33
2019-05-01T14:52:24.399Z,53.87
2019-05-01T14:54:54.172Z,53.60
2019-05-01T14:57:24.004Z,56.27
2019-05-01T14:59:54.219Z,52.70
2019-05-01T15:02:24.039Z,60.20
2019-05-01T15:04:53.794Z,60.73
2019-05-01T15:07:23.974Z,54.33
2019-05-01T15:09:54.025Z,50.20
2019-05-01T15:12:23.954Z,53.73
2019-05-01T15:15:12.673Z,50.27
2019-05-01T15:17:49.001Z,51.30
2019-05-01T15:20:19.112Z,56.23
2019-05-01T15:22:49.615Z,53.93
2019-05-01T15:25:19.440Z,54.93
2019-05-01T15:27:49.246Z,56.83
2019-05-01T15:30:19.932Z,63.97
2019-05-01T15:32:49.813Z,54.97
2019-05-01T15:35:19.671Z,55.43
2019-05-01T15:37:56.428Z,54.97
2019-05-01T15:40:32.773Z,55.80
2019-05-01T15:43:31.486Z,56.90
2019-05-01T15:46:01.218Z,55.90
2019-05-01T15:48:30.962Z,54.90
2019-05-01T15:51:00.873Z,60.63
2019-05-01T15:53:32.623Z,52.80
2019-05-01T15:56:02.462Z,59.77
2019-05-01T15:58:33.187Z,58.77
2019-05-01T16:01:03.215Z,62.53
2019-05-01T16:03:33.025Z,54.90
2019-05-01T16:06:02.799Z,59.33
2019-05-01T16:08:32.643Z,59.70
2019-05-01T16:11:12.412Z,62.63
2019-05-01T16:13:42.450Z,58.33
2019-05-01T16:16:12.543Z,64.20
2019-05-01T16:18:42.986Z,64.33
2019-05-01T16:21:13.192Z,58.97
2019-05-01T16:23:43.615Z,57.07
2019-05-01T16:26:14.165Z,59.80
2019-05-01T16:28:44.689Z,56.87
2019-05-01T16:31:14.540Z,62.13
2019-05-01T16:33:45.077Z,61.20
2019-05-01T16:36:15.383Z,56.90
2019-05-01T16:39:09.180Z,60.80
2019-05-01T16:41:38.981Z,65.23
2019-05-01T16:44:09.494Z,58.40
2019-05-01T16:46:40.013Z,61.83
2019-05-01T16:49:10.246Z,59.40
2019-05-01T16:51:41.336Z,59.17
2019-05-01T16:54:11.830Z,60.10
2019-05-01T16:56:42.375Z,56.73
2019-05-01T16:59:12.180Z,64.20
2019-05-01T17:01:48.835Z,63.20
2019-05-01T17:04:46.584Z,56.47
2019-05-01T17:07:34.453Z,57.77
2019-05-01T17:10:21.584Z,62.43
2019-05-01T17:12:54.226Z,61.37
2019-05-01T17:15:44.798Z,65.87
2019-05-01T17:18:15.033Z,62.23
2019-05-01T17:20:45.283Z,62.30
2019-05-01T17:23:16.055Z,62.23
2019-05-01T17:25:46.228Z,60.50
2019-05-01T17:28:16.261Z,63.57
2019-05-01T17:30:50.019Z,62.00
2019-05-01T17:33:22.130Z,64.27
2019-05-01T17:35:51.347Z,62.23
2019-05-01T17:38:22.093Z,66.10
2019-05-01T17:40:53.609Z,61.70
2019-05-01T17:43:23.409Z,61.33
2019-05-01T17:46:12.246Z,69.13
2019-05-01T17:48:42.136Z,62.03
2019-05-01T17:51:12.063Z,66.07
2019-05-01T17:53:41.877Z,67.57
2019-05-01T17:56:15.428Z,70.50
2019-05-01T17:58:43.342Z,67.43
2019-05-01T18:01:39.574Z,65.40
2019-05-01T18:04:30.787Z,75.63
2019-05-01T18:07:00.817Z,62.93
2019-05-01T18:09:30.607Z,63.10
2019-05-01T18:12:00.554Z,66.00
2019-05-01T18:14:30.377Z,63.40
2019-05-01T18:17:00.467Z,68.60
2019-05-01T18:19:30.526Z,60.63
2019-05-01T18:22:37.153Z,64.30
2019-05-01T18:25:33.211Z,66.93
2019-05-01T18:28:30.020Z,64.50
2019-05-01T18:30:58.475Z,72.50
2019-05-01T18:33:28.329Z,72.20
2019-05-01T18:35:58.078Z,70.00
2019-05-01T18:38:47.648Z,71.43
2019-05-01T18:41:20.537Z,79.10
2019-05-01T18:43:50.397Z,77.53
2019-05-01T18:46:20.267Z,70.57
2019-05-01T18:48:50.134Z,78.90
2019-05-01T18:51:19.975Z,71.90
2019-05-01T18:53:49.922Z,81.50
2019-05-01T18:56:19.737Z,74.87
2019-05-01T18:58:49.575Z,77.67
2019-05-01T19:01:19.529Z,79.83
2019-05-01T19:03:49.753Z,78.47
2019-05-01T19:06:19.604Z,72.10
2019-05-01T19:08:49.389Z,72.00
2019-05-01T19:11:20.050Z,88.10
2019-05-01T19:13:50.125Z,84.00
2019-05-01T19:16:19.975Z,75.53
2019-05-01T19:18:49.831Z,77.37
2019-05-01T19:21:23.770Z,73.33
2019-05-01T19:23:52.810Z,85.27
2019-05-01T19:26:23.250Z,87.33
2019-05-01T19:28:53.032Z,83.67
2019-05-01T19:31:23.092Z,86.00
2019-05-01T19:33:52.760Z,79.77
2019-05-01T19:36:22.528Z,88.10
2019-05-01T19:38:52.734Z,86.50
2019-05-01T19:41:22.851Z,86.40
2019-05-01T19:43:52.735Z,90.70
2019-05-01T19:46:22.617Z,105.13
2019-05-01T19:48:54.437Z,109.13
2019-05-01T19:51:25.981Z,96.87
2019-05-01T19:53:55.692Z,97.77
2019-05-01T19:56:25.359Z,104.37
2019-05-01T19:58:55.023Z,101.83
2019-05-01T20:01:25.361Z,104.60
2019-05-01T20:03:55.160Z,104.70
2019-05-01T20:06:24.919Z,107.70
2019-05-01T20:08:54.833Z,95.13
2019-05-01T20:11:24.690Z,95.30
2019-05-01T20:13:55.228Z,90.37
2019-05-01T20:16:25.334Z,104.43
2019-05-01T20:18:55.202Z,115.30
2019-05-01T20:21:25.015Z,102.13
2019-05-01T20:23:55.407Z,106.77
2019-05-01T20:26:26.829Z,98.87
2019-05-01T20:28:57.515Z,120.43
2019-05-01T20:31:32.645Z,110.87
2019-05-01T20:34:00.355Z,98.37
2019-05-01T20:36:30.314Z,100.37
2019-05-01T20:39:00.105Z,101.03
2019-05-01T20:41:30.203Z,103.47
2019-05-01T20:44:00.033Z,107.03
2019-05-01T20:46:30.525Z,102.30
2019-05-01T20:49:01.429Z,117.30
2019-05-01T20:51:32.318Z,118.77
2019-05-01T20:54:02.591Z,123.30
2019-05-01T20:56:53.365Z,117.93
2019-05-01T20:59:23.164Z,104.93
2019-05-01T21:01:53.012Z,114.93
2019-05-01T21:04:40.559Z,111.40
2019-05-01T21:07:23.948Z,100.63
2019-05-01T21:09:57.912Z,114.47
2019-05-01T21:12:25.626Z,119.53
2019-05-01T21:14:55.427Z,102.37
2019-05-01T21:17:25.642Z,104.43
2019-05-01T21:19:55.416Z,113.80
2019-05-01T21:22:25.480Z,103.97
2019-05-01T21:24:55.361Z,108.27
2019-05-01T21:27:25.915Z,109.03
2019-05-01T21:29:55.685Z,129.70
2019-05-01T21:32:27.492Z,124.17
2019-05-01T21:34:57.205Z,130.17
2019-05-01T21:37:27.009Z,132.17
2019-05-01T21:39:57.773Z,129.37
2019-05-01T21:42:27.865Z,162.20
2019-05-01T21:44:57.658Z,148.23
2019-05-01T21:47:27.758Z,152.20
2019-05-01T21:49:57.690Z,164.73
2019-05-01T21:52:27.526Z,142.33
2019-05-01T21:54:57.691Z,162.43
2019-05-01T21:57:30.034Z,151.73
2019-05-01T21:59:58.914Z,144.00
2019-05-01T22:02:28.960Z,143.83
2019-05-01T22:05:03.759Z,151.80
2019-05-01T22:07:29.971Z,146.87
2019-05-01T22:09:59.729Z,156.07
2019-05-01T22:12:29.550Z,154.77
2019-05-01T22:15:06.097Z,148.67
2019-05-01T22:17:55.863Z,140.57
2019-05-01T22:20:33.131Z,125.20
2019-05-01T22:23:06.512Z,123.27
2019-05-01T22:25:40.215Z,112.20
2019-05-01T22:28:18.757Z,126.93
2019-05-01T22:31:11.566Z,127.63
2019-05-01T22:33:42.266Z,130.80
2019-05-01T22:36:12.473Z,125.83
2019-05-01T22:38:42.317Z,136.93
2019-05-01T22:41:12.943Z,130.97
2019-05-01T22:43:42.889Z,119.80
2019-05-01T22:46:19.299Z,124.43
2019-05-01T22:48:49.004Z,130.20
2019-05-01T22:51:23.715Z,125.50
2019-05-01T22:53:56.479Z,119.23
2019-05-01T22:56:26.641Z,122.10
2019-05-01T22:58:56.696Z,129.30
2019-05-01T23:01:27.645Z,120.07
2019-05-01T23:04:17.297Z,125.57
2019-05-01T23:06:47.008Z,119.00
2019-05-01T23:09:23.427Z,114.80
2019-05-01T23:11:50.825Z,128.13
2019-05-01T23:14:22.253Z,123.10
2019-05-01T23:17:03.544Z,123.17
2019-05-01T23:19:34.370Z,141.87
2019-05-01T23:22:05.400Z,135.33
2019-05-01T23:24:35.054Z,121.07
2019-05-01T23:27:04.846Z,121.27
2019-05-01T23:29:34.692Z,125.53
2019-05-01T23:32:05.466Z,125.00
2019-05-01T23:34:35.499Z,128.70
2019-05-01T23:37:05.824Z,136.37
2019-05-01T23:39:40.418Z,135.77
2019-05-01T23:42:07.475Z,126.03
2019-05-01T23:44:38.251Z,140.50
2019-05-01T23:47:09.042Z,126.20
2019-05-01T23:49:38.827Z,140.33
2019-05-01T23:52:08.977Z,138.73
2019-05-01T23:54:38.730Z,147.43
2019-05-01T23:57:08.823Z,156.10
2019-05-01T23:59:38.645Z,159.33
